Nearby METAR Reports

 

KIMT - Iron Mountain, Michigan, USA
Distance from station: 0 29mi, 47km
Updated: Fri, 07-May-2021 6:54am CDT
Overcast
Overcast
 Wind from NNW
Wind: NNW 15 mph , 24 km/h
Temperature: 37°F , 3°C
Wind Chill: 28°F , -2°C
Dew Point: 34°F , 1°C
Humidity: 87%
Barometer: 29.94 inHg , 1013.9 hPa
Clouds: Overcast
Visibility: 10 miles , 16 km
Cloud details: Mostly cloudy 800 ft
Overcast 1500 ft
2021/05/07 11:54 KIMT 071154Z AUTO 34013KT 10SM BKN008 OVC015 03/01 A2994 RMK AO2 CIG 006V012 SLP148 60004 70004 T00280006 10028 20017 51010
KMNM - Menominee, Michigan, USA
Distance from station: SE 31mi, 51km
Updated: Fri, 07-May-2021 7:18am CDT
Overcast
Overcast
 Wind from NNW
Wind: NNW 13 mph , 20 km/h
Temperature: 39°F , 4°C
Wind Chill: 31°F , -1°C
Dew Point: 37°F , 3°C
Humidity: 93%
Barometer: 29.96 inHg , 1014.6 hPa
Clouds: Overcast
Visibility: 10 miles , 16 km
Cloud details: Overcast 1300 ft
2021/05/07 12:18 KMNM 071218Z AUTO 34011KT 10SM OVC013 04/03 A2996 RMK AO2 PNO $
 
KOCQ - Oconto, Wisconsin, USA
Distance from station: SSE 38mi, 61km
Updated: Fri, 07-May-2021 7:15am CDT
Mostly cloudy
Mostly cloudy
 Wind from NW
Wind: NW 8 mph , 13 km/h
Temperature: 41°F , 5°C
Wind Chill: 36°F , 2°C
Dew Point: 37°F , 3°C
Humidity: 87%
Barometer: 29.95 inHg , 1014.2 hPa
Clouds: Mostly cloudy
Visibility: 10 miles , 16 km
Cloud details: Mostly cloudy 3700 ft
2021/05/07 12:15 KOCQ 071215Z AUTO 32007KT 10SM BKN037 05/03 A2995 RMK AO1 T00500027
KEZS - Shawano Muni, Wisconsin, USA
Distance from station: SSW 48mi, 77km
Updated: Fri, 07-May-2021 7:15am CDT
Clear
Clear
 Wind from NW
Wind: NW 8 mph , 13 km/h
Temperature: 41°F , 5°C
Wind Chill: 36°F , 2°C
Dew Point: 37°F , 3°C
Humidity: 87%
Barometer: 29.97 inHg , 1014.9 hPa
Clouds: Clear
Visibility: 10 miles , 16 km
2021/05/07 12:15 KEZS 071215Z AUTO 32007KT 10SM CLR 05/03 A2997 RMK AO2 T00540027
 
KAIG - Antigo/Langlade, Wisconsin, USA
Distance from station: WSW 51mi, 82km
Updated: Fri, 07-May-2021 7:15am CDT
Overcast
Overcast
 Wind from NW
Wind: NW 12 mph , 19 km/h
Temperature: 36°F , 2°C
Wind Chill: 28°F , -2°C
Dew Point: 34°F , 1°C
Humidity: 93%
Barometer: 29.98 inHg , 1015.2 hPa
Clouds: Overcast
Visibility: 10 miles , 16 km
Cloud details: Partly cloudy 1800 ft
Overcast 2300 ft
2021/05/07 12:15 KAIG 071215Z AUTO 31010KT 10SM SCT018 OVC023 02/01 A2998 RMK AO2 T00200006
KSUE - Sturgeon Bay, Wisconsin, USA
Distance from station: SE 51mi, 82km
Updated: Fri, 07-May-2021 6:56am CDT
Overcast
Overcast
 Wind from NW
Wind: NW 10 mph , 17 km/h, Gust: 18 mph , 30 km/h
Temperature: 41°F , 5°C
Wind Chill: 35°F , 2°C
Dew Point: 37°F , 3°C
Humidity: 87%
Barometer: 29.94 inHg , 1013.9 hPa
Clouds: Overcast
Visibility: 10 miles , 16 km
Cloud details: Mostly cloudy 1300 ft
Overcast 1700 ft
2021/05/07 11:56 KSUE 071156Z AUTO 31009G16KT 10SM BKN013 OVC017 05/03 A2994 RMK AO2 SLP142 P0001 6//// 7//// T00500033 10067 20050 53005
 
KESC - Escanaba, Michigan, USA
Distance from station: ENE 56mi, 90km
Updated: Fri, 07-May-2021 6:56am CDT
Light rain, Mist, Overcast
Light rain, Mist, Overcast
 Wind from N
Wind: N 6 mph , 9 km/h
Temperature: 36°F , 2°C
Wind Chill: 31°F , -1°C
Dew Point: 34°F , 1°C
Humidity: 93%
Barometer: 29.96 inHg , 1014.6 hPa
Summary: Light rain, Mist
Clouds: Overcast
Visibility: 6 miles , 10 km
Cloud details: Overcast 800 ft
2021/05/07 11:56 KESC 071156Z AUTO 01005KT 6SM -RA BR OVC008 02/01 A2996 RMK AO2 RAB16 SLP154 P0001 6//// 7//// T00220011 10061 20022 53011 FZRANO $
KCLI - Clintonville, Wisconsin, USA
Distance from station: SSW 62mi, 99km
Updated: Fri, 07-May-2021 7:15am CDT
Overcast
Overcast
 Wind from NW
Wind: NW 8 mph , 13 km/h
Temperature: 39°F , 4°C
Wind Chill: 33°F , 1°C
Dew Point: 36°F , 2°C
Humidity: 87%
Barometer: 29.99 inHg , 1015.6 hPa
Clouds: Overcast
Visibility: 10 miles , 16 km
Cloud details: Overcast 2900 ft
2021/05/07 12:15 KCLI 071215Z AUTO 31007KT 10SM OVC029 04/02 A2999 RMK AO2 T00410015
 
KGRB - Ashwaubenon, Wisconsin, USA
Distance from station: S 63mi, 102km
Updated: Fri, 07-May-2021 6:53am CDT
Clear
Clear
 Wind from WNW
Wind: WNW 14 mph , 22 km/h
Temperature: 41°F , 5°C
Wind Chill: 33°F , 1°C
Dew Point: 36°F , 2°C
Humidity: 81%
Barometer: 29.96 inHg , 1014.6 hPa
Clouds: Clear
Visibility: 10 miles , 16 km
2021/05/07 11:53 KGRB 071153Z 30012KT 10SM CLR 05/02 A2996 RMK AO2 SLP150 60001 70001 T00500017 10078 20044 53008
KEGV - Eagle River, Wisconsin, USA
Distance from station: NW 66mi, 107km
Updated: Fri, 07-May-2021 7:15am CDT
Overcast
Overcast
 Wind from N
Wind: N 12 mph , 19 km/h
Temperature: 36°F , 2°C
Wind Chill: 28°F , -2°C
Dew Point: 32°F , 0°C
Humidity: 87%
Barometer: 29.99 inHg , 1015.6 hPa
Clouds: Overcast
Visibility: 10 miles , 16 km
Cloud details: Overcast 1500 ft
2021/05/07 12:15 KEGV 071215Z AUTO 36010KT 10SM OVC015 02/00 A2999 RMK AO2 T00200001
 
KRHI - Rhinelander, Wisconsin, USA
Distance from station: WNW 68mi, 109km
Updated: Fri, 07-May-2021 6:53am CDT
Overcast
Overcast
 Wind from NW
Wind: NW 9 mph , 15 km/h
Temperature: 36°F , 2°C
Wind Chill: 29°F , -2°C
Dew Point: 30°F , -1°C
Humidity: 81%
Barometer: 29.99 inHg , 1015.6 hPa
Clouds: Overcast
Visibility: 10 miles , 16 km
Cloud details: Overcast 2000 ft
2021/05/07 11:53 KRHI 071153Z AUTO 32008KT 10SM OVC020 02/M01 A2999 RMK AO2 SLP165 70001 T00221011 10033 20017 53010
KLNL - Land O Lakes, Wisconsin, USA
Distance from station: NW 74mi, 119km
Updated: Fri, 07-May-2021 7:15am CDT
Overcast
Overcast
 Wind from N
Wind: N 9 mph , 15 km/h
Temperature: 36°F , 2°C
Wind Chill: 29°F , -2°C
Dew Point: 32°F , 0°C
Humidity: 87%
Barometer: 30.01 inHg , 1016.3 hPa
Clouds: Overcast
Visibility: 10 miles , 16 km
Cloud details: Overcast 1600 ft
2021/05/07 12:15 KLNL 071215Z AUTO 35008KT 10SM OVC016 02/00 A3001 RMK AO2 T00201002
 
KSAW - Gwinn/Sawyer, Michigan, USA
Distance from station: NNE 74mi, 120km
Updated: Fri, 07-May-2021 7:22am CDT
Mist, Overcast
Mist, Overcast
 Wind from NNE
Wind: NNE 6 mph , 9 km/h
Temperature: 32°F , 0°C
Wind Chill: 26°F , -3°C
Dew Point: 32°F , 0°C
Humidity: 100%
Barometer: 29.97 inHg , 1014.9 hPa
Summary: Mist
Clouds: Overcast
Visibility: 2 1/2 miles , 4 km
Cloud details: Overcast 300 ft
2021/05/07 12:22 KSAW 071222Z AUTO 03005KT 2 1/2SM BR OVC003 00/00 A2997 RMK AO2 T00021002